Fantasia — ICJY — position and weather

sailwx.info

Track history (hours):
 
Tides and Currents Weather Stations Pressure Air Temp Water Temp Dewpoint Dewpoint Depression Visibility Wind Speed Wind Dir Waves Ship Positions

Fantasia

Last reported at 2015-May-19 12:25 UTC. Time now 2015-May-25 23:44 UTC.
Position N 49°56' W 003°28'.

Length 183 m; draft 11.2 m.

Type: Tanker. MMSI: 247279600.

Date/timePositionNaut miles runAvg speedWind from/ knotsBaromVisibWave heightAir tempDewpointWater temp
2015-May-19 12:25N 49°56' W 003°28'1212.9
2015-May-19 11:29N 49°58' W 003°09'71 9.9
2015-May-19 04:24N 50°16' W 001°23'5313.8
2015-May-19 00:32N 50°31' W 000°03'1211.3
2015-May-18 23:30N 50°34' E 000°15'1010.2
2015-May-18 22:33N 50°37' E 000°29'10 9.9
2015-May-18 21:33N 50°42' E 000°43'1010.4
2015-May-18 20:34N 50°48' E 000°56'1212.1
2015-May-18 19:33N 50°55' E 001°11'1313.5
2015-May-18 18:33N 51°04' E 001°28'1313.2
2015-May-18 17:33N 51°13' E 001°44'1212.0
2015-May-18 16:33N 51°23' E 001°55'1110.7
2015-May-18 15:34N 51°31' E 002°04'9 9.2
2015-May-18 14:33N 51°38' E 002°14'10 8.7
2015-May-18 13:26N 51°46' E 002°24'5811.5
2015-May-18 08:26N 52°27' E 003°30'1312.7
2015-May-18 07:26N 52°31' E 003°49'1112.3
2015-May-18 06:33N 52°31' E 004°07'1212.2
2015-May-18 05:33N 52°29' E 004°27'6 6.1
2015-May-18 04:33N 52°28' E 004°37'3 3.4
2015-May-18 03:33N 52°27' E 004°42'4 3.7
2015-May-18 02:34N 52°24' E 004°46'0 0.0
2015-May-18 01:32N 52°24' E 004°46'0 0.0
2015-May-18 00:32N 52°24' E 004°46'0 0.0
2015-May-17 23:29N 52°24' E 004°46'0 0.0
2015-May-17 22:26N 52°24' E 004°46'0 0.0
2015-May-17 21:29N 52°24' E 004°46'0 0.0
2015-May-17 20:29N 52°24' E 004°46'0 0.0
2015-May-17 19:32N 52°24' E 004°46'0 0.0
2015-May-17 18:32N 52°24' E 004°46'0 0.0
2015-May-17 17:29N 52°24' E 004°46'0 0.0
2015-May-17 16:29N 52°24' E 004°46'0 0.0
2015-May-17 15:29N 52°24' E 004°46'0 0.0
2015-May-17 14:20N 52°24' E 004°46'0 0.0
2015-May-17 13:32N 52°24' E 004°46'0 0.0
2015-May-17 12:32N 52°24' E 004°46'0 0.0
2015-May-17 11:26N 52°24' E 004°46'0 0.0
2015-May-17 10:32N 52°24' E 004°46'0 0.0
2015-May-17 09:32N 52°24' E 004°46'0 0.0
2015-May-17 08:20N 52°24' E 004°46'0 0.0
2015-May-17 07:26N 52°24' E 004°46'0 0.0
2015-May-17 06:17N 52°24' E 004°46'0 0.0
2015-May-17 05:32N 52°24' E 004°46'0 0.0
2015-May-17 04:29N 52°24' E 004°46'0 0.0
2015-May-17 03:32N 52°24' E 004°46'0 0.0
2015-May-17 02:23N 52°24' E 004°46'0 0.0
2015-May-17 01:29N 52°24' E 004°46'0 0.0
2015-May-17 00:26N 52°24' E 004°46'0 0.0
2015-May-16 23:32N 52°24' E 004°46'0 0.0
2015-May-16 22:32N 52°24' E 004°46'0 0.0
2015-May-16 21:11N 52°24' E 004°46'0 0.0
2015-May-16 20:32N 52°24' E 004°46'0 0.0
2015-May-16 19:32N 52°24' E 004°46'0 0.0
2015-May-16 18:32N 52°24' E 004°46'0 0.0
2015-May-16 17:29N 52°24' E 004°46'0 0.0
2015-May-16 16:20N 52°24' E 004°46'0 0.0
2015-May-16 15:32N 52°24' E 004°46'0 0.0
2015-May-16 14:32N 52°24' E 004°46'0 0.0
2015-May-16 13:32N 52°24' E 004°46'0 0.0
2015-May-16 12:32N 52°24' E 004°46'0 0.0
2015-May-16 11:26N 52°24' E 004°46'0 0.0
2015-May-16 10:32N 52°24' E 004°46'0 0.0
2015-May-16 09:29N 52°24' E 004°46'0 0.0
2015-May-16 08:29N 52°24' E 004°46'0 0.0
2015-May-16 07:32N 52°24' E 004°46'0 0.0
2015-May-16 06:29N 52°24' E 004°46'0 0.0
2015-May-16 05:29N 52°24' E 004°46'0 0.0
2015-May-16 04:23N 52°24' E 004°46'0 0.0
2015-May-16 03:29N 52°24' E 004°46'0 0.0
2015-May-16 02:32N 52°24' E 004°46'0 0.0
2015-May-16 01:32N 52°24' E 004°46'0 0.0
2015-May-16 00:32N 52°24' E 004°46'0 0.0
2015-May-15 23:32N 52°24' E 004°46'0 0.0
2015-May-15 22:26N 52°24' E 004°46'0 0.0
2015-May-15 21:29N 52°24' E 004°46'0 0.0
2015-May-15 20:26N 52°24' E 004°46'0 0.0
2015-May-15 19:32N 52°24' E 004°46'0 0.0
2015-May-15 18:29N 52°24' E 004°46'0 0.0
2015-May-15 17:32N 52°24' E 004°46'0 0.0
2015-May-15 16:23N 52°24' E 004°46'0 0.0
2015-May-15 15:32N 52°24' E 004°46'0 0.0
2015-May-15 14:32N 52°24' E 004°46'0 0.0
2015-May-15 13:32N 52°24' E 004°46'0 0.0
2015-May-15 12:11N 52°24' E 004°46'0 0.0
2015-May-15 11:32N 52°24' E 004°46'0 0.0
2015-May-15 10:29N 52°24' E 004°46'0 0.0
2015-May-15 09:32N 52°24' E 004°46'0 0.0
2015-May-15 08:26N 52°24' E 004°46'0 0.0
2015-May-15 07:32N 52°24' E 004°46'0 0.0
2015-May-15 06:32N 52°24' E 004°46'0 0.0
2015-May-15 05:26N 52°24' E 004°46'0 0.0
2015-May-15 04:26N 52°24' E 004°46'0 0.0
2015-May-15 03:23N 52°24' E 004°46'0 0.0
2015-May-15 02:32N 52°24' E 004°46'0 0.0
2015-May-15 01:29N 52°24' E 004°46'0 0.0
2015-May-15 00:29N 52°24' E 004°46'0 0.0
2015-May-14 23:32N 52°24' E 004°46'0 0.0
2015-May-14 22:32N 52°24' E 004°46'0 0.0
2015-May-14 21:32N 52°24' E 004°46'0 0.0
2015-May-14 20:26N 52°24' E 004°46'0 0.0
2015-May-14 19:29N 52°24' E 004°46'0 0.0
2015-May-14 18:32N 52°24' E 004°46'0 0.0
2015-May-14 17:23N 52°24' E 004°46'0 0.0
2015-May-14 16:32N 52°24' E 004°46'0 0.0
2015-May-14 15:26N 52°24' E 004°46'0 0.0
2015-May-14 14:32N 52°24' E 004°46'0 0.0
2015-May-14 13:26N 52°24' E 004°46'0 0.0
2015-May-14 12:26N 52°24' E 004°46'0 0.0
2015-May-14 11:29N 52°24' E 004°46'0 0.0
2015-May-14 10:29N 52°24' E 004°46'0 0.0
2015-May-14 09:20N 52°24' E 004°46'0 0.0
2015-May-14 08:32N 52°24' E 004°46'0 0.0
2015-May-14 07:32N 52°24' E 004°46'0 0.0
2015-May-14 06:26N 52°24' E 004°46'0 0.0
2015-May-14 05:26N 52°24' E 004°46'0 0.0
2015-May-14 04:32N 52°24' E 004°46'0 0.0
2015-May-14 03:32N 52°24' E 004°46'0 0.0
2015-May-14 02:26N 52°24' E 004°46'0 0.0
2015-May-14 01:29N 52°24' E 004°46'0 0.0
2015-May-14 00:32N 52°24' E 004°46'0 0.0
2015-May-13 23:23N 52°24' E 004°46'0 0.0
2015-May-13 22:32N 52°24' E 004°46'0 0.0
2015-May-13 21:29N 52°24' E 004°46'0 0.0
2015-May-13 20:29N 52°24' E 004°46'0 0.0
2015-May-13 19:29N 52°24' E 004°46'0 0.0
2015-May-13 18:29N 52°24' E 004°46'0 0.0
2015-May-13 17:32N 52°24' E 004°46'0 0.0
2015-May-13 16:29N 52°24' E 004°46'0 0.0
2015-May-13 15:32N 52°24' E 004°46'0 0.0
2015-May-13 14:29N 52°24' E 004°46'0 0.0
2015-May-13 13:29N 52°24' E 004°46'0 0.0
2015-May-13 12:32N 52°24' E 004°46'0 0.0
2015-May-13 11:32N 52°24' E 004°46'0 0.0
2015-May-13 10:29N 52°24' E 004°46'0 0.0
2015-May-13 09:23N 52°24' E 004°46'0 0.0
2015-May-13 08:32N 52°24' E 004°46'0 0.0
2015-May-13 07:11N 52°24' E 004°46'0 0.0
2015-May-13 06:29N 52°24' E 004°46'0 0.0
2015-May-13 05:32N 52°24' E 004°46'0 0.0
2015-May-13 04:29N 52°24' E 004°46'0 0.0
2015-May-13 03:29N 52°24' E 004°46'0 0.0
2015-May-13 02:32N 52°24' E 004°46'0 0.0
2015-May-13 01:23N 52°24' E 004°46'0 0.0
2015-May-13 00:32N 52°24' E 004°46'0 0.0
2015-May-12 23:29N 52°24' E 004°46'0 0.0
2015-May-12 22:29N 52°24' E 004°46'0 0.0
2015-May-12 21:32N 52°24' E 004°46'0 0.0
2015-May-12 20:32N 52°24' E 004°46'0 0.0
2015-May-12 19:32N 52°24' E 004°46'0 0.0
2015-May-12 18:29N 52°24' E 004°46'0 0.0
2015-May-12 17:32N 52°24' E 004°46'0 0.0
2015-May-12 16:29N 52°24' E 004°46'0 0.0
2015-May-12 15:32N 52°24' E 004°46'0 0.0
2015-May-12 14:32N 52°24' E 004°46'0 0.0
2015-May-12 13:32N 52°24' E 004°46'2 2.1
2015-May-12 12:33N 52°26' E 004°44'5 5.3
2015-May-12 11:34N 52°28' E 004°36'1 1.4
2015-May-12 10:34N 52°28' E 004°34'7 6.6
2015-May-12 09:33N 52°29' E 004°23'10 9.9
2015-May-12 08:34N 52°29' E 004°07'4 3.5
2015-May-12 07:29N 52°27' E 004°02'0 0.0
2015-May-12 06:29N 52°27' E 004°02'7 7.1
2015-May-12 05:33N 52°26' E 003°51'1413.8
2015-May-12 04:33N 52°21' E 003°30'1313.0
2015-May-12 03:34N 52°12' E 003°15'1212.2
2015-May-12 02:33N 52°03' E 003°02'1413.6
2015-May-12 01:34N 51°53' E 002°46'1414.0
2015-May-12 00:34N 51°43' E 002°31'1414.4
2015-May-11 23:34N 51°32' E 002°16'1515.0
2015-May-11 22:34N 51°21' E 001°60'1515.3
2015-May-11 21:34N 51°09' E 001°44'1615.8
2015-May-11 20:33N 50°56' E 001°30'1615.7
2015-May-11 19:31N 50°41' E 001°20'1515.3
2015-May-11 18:32N 50°31' E 001°02'1914.9
2015-May-11 17:14N 50°25' E 000°33'8016.5
2015-May-11 12:23N 50°02' W 001°27'  
Track history (hours):
 
Tides and Currents Weather Stations Pressure Air Temp Water Temp Dewpoint Dewpoint Depression Visibility Wind Speed Wind Dir Waves Ship Positions

Fantasia

Last reported at 2015-May-19 12:25 UTC. Time now 2015-May-25 23:44 UTC.
Position N 49°56' W 003°28'.

Length 183 m; draft 11.2 m.

Type: Tanker. MMSI: 247279600.

Date/timePositionNaut miles runAvg speedWind from/ knotsBaromVisibWave heightAir tempDewpointWater temp
2015-May-19 12:25N 49°56' W 003°28'1212.9
2015-May-19 11:29N 49°58' W 003°09'71 9.9
2015-May-19 04:24N 50°16' W 001°23'5313.8
2015-May-19 00:32N 50°31' W 000°03'1211.3
2015-May-18 23:30N 50°34' E 000°15'1010.2
2015-May-18 22:33N 50°37' E 000°29'10 9.9
2015-May-18 21:33N 50°42' E 000°43'1010.4
2015-May-18 20:34N 50°48' E 000°56'1212.1
2015-May-18 19:33N 50°55' E 001°11'1313.5
2015-May-18 18:33N 51°04' E 001°28'1313.2
2015-May-18 17:33N 51°13' E 001°44'1212.0
2015-May-18 16:33N 51°23' E 001°55'1110.7
2015-May-18 15:34N 51°31' E 002°04'9 9.2
2015-May-18 14:33N 51°38' E 002°14'10 8.7
2015-May-18 13:26N 51°46' E 002°24'5811.5
2015-May-18 08:26N 52°27' E 003°30'1312.7
2015-May-18 07:26N 52°31' E 003°49'1112.3
2015-May-18 06:33N 52°31' E 004°07'1212.2
2015-May-18 05:33N 52°29' E 004°27'6 6.1
2015-May-18 04:33N 52°28' E 004°37'3 3.4
2015-May-18 03:33N 52°27' E 004°42'4 3.7
2015-May-18 02:34N 52°24' E 004°46'0 0.0
2015-May-18 01:32N 52°24' E 004°46'0 0.0
2015-May-18 00:32N 52°24' E 004°46'0 0.0
2015-May-17 23:29N 52°24' E 004°46'0 0.0
2015-May-17 22:26N 52°24' E 004°46'0 0.0
2015-May-17 21:29N 52°24' E 004°46'0 0.0
2015-May-17 20:29N 52°24' E 004°46'0 0.0
2015-May-17 19:32N 52°24' E 004°46'0 0.0
2015-May-17 18:32N 52°24' E 004°46'0 0.0
2015-May-17 17:29N 52°24' E 004°46'0 0.0
2015-May-17 16:29N 52°24' E 004°46'0 0.0
2015-May-17 15:29N 52°24' E 004°46'0 0.0
2015-May-17 14:20N 52°24' E 004°46'0 0.0
2015-May-17 13:32N 52°24' E 004°46'0 0.0
2015-May-17 12:32N 52°24' E 004°46'0 0.0
2015-May-17 11:26N 52°24' E 004°46'0 0.0
2015-May-17 10:32N 52°24' E 004°46'0 0.0
2015-May-17 09:32N 52°24' E 004°46'0 0.0
2015-May-17 08:20N 52°24' E 004°46'0 0.0
2015-May-17 07:26N 52°24' E 004°46'0 0.0
2015-May-17 06:17N 52°24' E 004°46'0 0.0
2015-May-17 05:32N 52°24' E 004°46'0 0.0
2015-May-17 04:29N 52°24' E 004°46'0 0.0
2015-May-17 03:32N 52°24' E 004°46'0 0.0
2015-May-17 02:23N 52°24' E 004°46'0 0.0
2015-May-17 01:29N 52°24' E 004°46'0 0.0
2015-May-17 00:26N 52°24' E 004°46'0 0.0
2015-May-16 23:32N 52°24' E 004°46'0 0.0
2015-May-16 22:32N 52°24' E 004°46'0 0.0
2015-May-16 21:11N 52°24' E 004°46'0 0.0
2015-May-16 20:32N 52°24' E 004°46'0 0.0
2015-May-16 19:32N 52°24' E 004°46'0 0.0
2015-May-16 18:32N 52°24' E 004°46'0 0.0
2015-May-16 17:29N 52°24' E 004°46'0 0.0
2015-May-16 16:20N 52°24' E 004°46'0 0.0
2015-May-16 15:32N 52°24' E 004°46'0 0.0
2015-May-16 14:32N 52°24' E 004°46'0 0.0
2015-May-16 13:32N 52°24' E 004°46'0 0.0
2015-May-16 12:32N 52°24' E 004°46'0 0.0
2015-May-16 11:26N 52°24' E 004°46'0 0.0
2015-May-16 10:32N 52°24' E 004°46'0 0.0
2015-May-16 09:29N 52°24' E 004°46'0 0.0
2015-May-16 08:29N 52°24' E 004°46'0 0.0
2015-May-16 07:32N 52°24' E 004°46'0 0.0
2015-May-16 06:29N 52°24' E 004°46'0 0.0
2015-May-16 05:29N 52°24' E 004°46'0 0.0
2015-May-16 04:23N 52°24' E 004°46'0 0.0
2015-May-16 03:29N 52°24' E 004°46'0 0.0
2015-May-16 02:32N 52°24' E 004°46'0 0.0
2015-May-16 01:32N 52°24' E 004°46'0 0.0
2015-May-16 00:32N 52°24' E 004°46'0 0.0
2015-May-15 23:32N 52°24' E 004°46'0 0.0
2015-May-15 22:26N 52°24' E 004°46'0 0.0
2015-May-15 21:29N 52°24' E 004°46'0 0.0
2015-May-15 20:26N 52°24' E 004°46'0 0.0
2015-May-15 19:32N 52°24' E 004°46'0 0.0
2015-May-15 18:29N 52°24' E 004°46'0 0.0
2015-May-15 17:32N 52°24' E 004°46'0 0.0
2015-May-15 16:23N 52°24' E 004°46'0 0.0
2015-May-15 15:32N 52°24' E 004°46'0 0.0
2015-May-15 14:32N 52°24' E 004°46'0 0.0
2015-May-15 13:32N 52°24' E 004°46'0 0.0
2015-May-15 12:11N 52°24' E 004°46'0 0.0
2015-May-15 11:32N 52°24' E 004°46'0 0.0
2015-May-15 10:29N 52°24' E 004°46'0 0.0
2015-May-15 09:32N 52°24' E 004°46'0 0.0
2015-May-15 08:26N 52°24' E 004°46'0 0.0
2015-May-15 07:32N 52°24' E 004°46'0 0.0
2015-May-15 06:32N 52°24' E 004°46'0 0.0
2015-May-15 05:26N 52°24' E 004°46'0 0.0
2015-May-15 04:26N 52°24' E 004°46'0 0.0
2015-May-15 03:23N 52°24' E 004°46'0 0.0
2015-May-15 02:32N 52°24' E 004°46'0 0.0
2015-May-15 01:29N 52°24' E 004°46'0 0.0
2015-May-15 00:29N 52°24' E 004°46'0 0.0
2015-May-14 23:32N 52°24' E 004°46'0 0.0
2015-May-14 22:32N 52°24' E 004°46'0 0.0
2015-May-14 21:32N 52°24' E 004°46'0 0.0
2015-May-14 20:26N 52°24' E 004°46'0 0.0
2015-May-14 19:29N 52°24' E 004°46'0 0.0
2015-May-14 18:32N 52°24' E 004°46'0 0.0
2015-May-14 17:23N 52°24' E 004°46'0 0.0
2015-May-14 16:32N 52°24' E 004°46'0 0.0
2015-May-14 15:26N 52°24' E 004°46'0 0.0
2015-May-14 14:32N 52°24' E 004°46'0 0.0
2015-May-14 13:26N 52°24' E 004°46'0 0.0
2015-May-14 12:26N 52°24' E 004°46'0 0.0
2015-May-14 11:29N 52°24' E 004°46'0 0.0
2015-May-14 10:29N 52°24' E 004°46'0 0.0
2015-May-14 09:20N 52°24' E 004°46'0 0.0
2015-May-14 08:32N 52°24' E 004°46'0 0.0
2015-May-14 07:32N 52°24' E 004°46'0 0.0
2015-May-14 06:26N 52°24' E 004°46'0 0.0
2015-May-14 05:26N 52°24' E 004°46'0 0.0
2015-May-14 04:32N 52°24' E 004°46'0 0.0
2015-May-14 03:32N 52°24' E 004°46'0 0.0
2015-May-14 02:26N 52°24' E 004°46'0 0.0
2015-May-14 01:29N 52°24' E 004°46'0 0.0
2015-May-14 00:32N 52°24' E 004°46'0 0.0
2015-May-13 23:23N 52°24' E 004°46'0 0.0
2015-May-13 22:32N 52°24' E 004°46'0 0.0
2015-May-13 21:29N 52°24' E 004°46'0 0.0
2015-May-13 20:29N 52°24' E 004°46'0 0.0
2015-May-13 19:29N 52°24' E 004°46'0 0.0
2015-May-13 18:29N 52°24' E 004°46'0 0.0
2015-May-13 17:32N 52°24' E 004°46'0 0.0
2015-May-13 16:29N 52°24' E 004°46'0 0.0
2015-May-13 15:32N 52°24' E 004°46'0 0.0
2015-May-13 14:29N 52°24' E 004°46'0 0.0
2015-May-13 13:29N 52°24' E 004°46'0 0.0
2015-May-13 12:32N 52°24' E 004°46'0 0.0
2015-May-13 11:32N 52°24' E 004°46'0 0.0
2015-May-13 10:29N 52°24' E 004°46'0 0.0
2015-May-13 09:23N 52°24' E 004°46'0 0.0
2015-May-13 08:32N 52°24' E 004°46'0 0.0
2015-May-13 07:11N 52°24' E 004°46'0 0.0
2015-May-13 06:29N 52°24' E 004°46'0 0.0
2015-May-13 05:32N 52°24' E 004°46'0 0.0
2015-May-13 04:29N 52°24' E 004°46'0 0.0
2015-May-13 03:29N 52°24' E 004°46'0 0.0
2015-May-13 02:32N 52°24' E 004°46'0 0.0
2015-May-13 01:23N 52°24' E 004°46'0 0.0
2015-May-13 00:32N 52°24' E 004°46'0 0.0
2015-May-12 23:29N 52°24' E 004°46'0 0.0
2015-May-12 22:29N 52°24' E 004°46'0 0.0
2015-May-12 21:32N 52°24' E 004°46'0 0.0
2015-May-12 20:32N 52°24' E 004°46'0 0.0
2015-May-12 19:32N 52°24' E 004°46'0 0.0
2015-May-12 18:29N 52°24' E 004°46'0 0.0
2015-May-12 17:32N 52°24' E 004°46'0 0.0
2015-May-12 16:29N 52°24' E 004°46'0 0.0
2015-May-12 15:32N 52°24' E 004°46'0 0.0
2015-May-12 14:32N 52°24' E 004°46'0 0.0
2015-May-12 13:32N 52°24' E 004°46'2 2.1
2015-May-12 12:33N 52°26' E 004°44'5 5.3
2015-May-12 11:34N 52°28' E 004°36'1 1.4
2015-May-12 10:34N 52°28' E 004°34'7 6.6
2015-May-12 09:33N 52°29' E 004°23'10 9.9
2015-May-12 08:34N 52°29' E 004°07'4 3.5
2015-May-12 07:29N 52°27' E 004°02'0 0.0
2015-May-12 06:29N 52°27' E 004°02'7 7.1
2015-May-12 05:33N 52°26' E 003°51'1413.8
2015-May-12 04:33N 52°21' E 003°30'1313.0
2015-May-12 03:34N 52°12' E 003°15'1212.2
2015-May-12 02:33N 52°03' E 003°02'1413.6
2015-May-12 01:34N 51°53' E 002°46'1414.0
2015-May-12 00:34N 51°43' E 002°31'1414.4
2015-May-11 23:34N 51°32' E 002°16'1515.0
2015-May-11 22:34N 51°21' E 001°60'1515.3
2015-May-11 21:34N 51°09' E 001°44'1615.8
2015-May-11 20:33N 50°56' E 001°30'1615.7
2015-May-11 19:31N 50°41' E 001°20'1515.3
2015-May-11 18:32N 50°31' E 001°02'1914.9
2015-May-11 17:14N 50°25' E 000°33'8016.5
2015-May-11 12:23N 50°02' W 001°27'  

Dump ship's entire track history